createdAt,value
2017-09-01T00:00:04.435Z,16.40
2017-09-01T00:02:32.772Z,16.40
2017-09-01T00:05:01.062Z,16.60
2017-09-01T00:07:29.688Z,16.40
2017-09-01T00:09:57.959Z,16.50
2017-09-01T00:12:26.257Z,16.10
2017-09-01T00:14:54.528Z,16.30
2017-09-01T00:17:22.866Z,16.40
2017-09-01T00:19:51.110Z,16.60
2017-09-01T00:22:19.526Z,16.20
2017-09-01T00:24:47.797Z,16.50
2017-09-01T00:27:16.022Z,16.20
2017-09-01T00:29:44.353Z,16.30
2017-09-01T00:32:12.691Z,16.40
2017-09-01T00:34:40.955Z,16.40
2017-09-01T00:37:09.242Z,16.00
2017-09-01T00:39:37.487Z,16.20
2017-09-01T00:42:05.787Z,16.30
2017-09-01T00:44:34.055Z,16.10
2017-09-01T00:47:02.389Z,16.30
2017-09-01T00:49:34.765Z,16.30
2017-09-01T00:52:03.124Z,16.20
2017-09-01T00:54:31.361Z,16.30
2017-09-01T00:56:59.635Z,16.10
2017-09-01T00:59:27.920Z,16.00
2017-09-01T01:01:56.180Z,16.20
2017-09-01T01:04:24.464Z,16.00
2017-09-01T01:06:52.704Z,16.00
2017-09-01T01:09:20.991Z,16.30
2017-09-01T01:11:49.281Z,16.00
2017-09-01T01:14:17.559Z,16.20
2017-09-01T01:16:45.847Z,16.00
2017-09-01T01:19:14.245Z,16.40
2017-09-01T01:21:42.557Z,16.30
2017-09-01T01:24:11.623Z,16.40
2017-09-01T01:26:39.913Z,16.00
2017-09-01T01:29:08.207Z,16.10
2017-09-01T01:31:36.468Z,16.10
2017-09-01T01:34:04.759Z,16.00
2017-09-01T01:36:33.571Z,16.40
2017-09-01T01:39:01.899Z,16.40
2017-09-01T01:41:30.164Z,16.10
2017-09-01T01:43:58.478Z,16.00
2017-09-01T01:46:26.913Z,16.40
2017-09-01T01:48:55.338Z,16.20
2017-09-01T01:51:23.646Z,16.00
2017-09-01T01:53:51.936Z,16.20
2017-09-01T01:56:20.280Z,16.40
2017-09-01T01:58:48.656Z,16.00
2017-09-01T02:01:16.951Z,16.30
2017-09-01T02:03:45.220Z,16.10
2017-09-01T02:06:13.507Z,16.00
2017-09-01T02:08:41.799Z,16.20
2017-09-01T02:11:10.548Z,16.00
2017-09-01T02:13:38.798Z,16.10
2017-09-01T02:16:07.089Z,16.00
2017-09-01T02:18:35.353Z,16.10
2017-09-01T02:21:03.689Z,16.10
2017-09-01T02:23:31.968Z,16.20
2017-09-01T02:26:00.236Z,15.90
2017-09-01T02:28:28.542Z,15.80
2017-09-01T02:30:56.803Z,15.90
2017-09-01T02:33:25.066Z,15.70
2017-09-01T02:35:53.325Z,15.70
2017-09-01T02:38:21.609Z,15.90
2017-09-01T02:40:49.880Z,15.80
2017-09-01T02:43:18.175Z,15.70
2017-09-01T02:45:46.489Z,15.90
2017-09-01T02:48:14.847Z,15.90
2017-09-01T02:50:43.166Z,15.80
2017-09-01T02:53:11.503Z,15.70
2017-09-01T02:55:39.790Z,15.90
2017-09-01T02:58:08.104Z,15.70
2017-09-01T03:00:37.183Z,15.70
2017-09-01T03:03:05.485Z,15.60
2017-09-01T03:05:33.757Z,15.90
2017-09-01T03:08:02.032Z,15.60
2017-09-01T03:10:30.408Z,15.90
2017-09-01T03:12:58.798Z,15.80
2017-09-01T03:15:27.120Z,15.80
2017-09-01T03:17:55.395Z,15.80
2017-09-01T03:20:23.676Z,15.80
2017-09-01T03:22:51.956Z,15.50
2017-09-01T03:25:20.234Z,15.50
2017-09-01T03:27:48.560Z,15.50
2017-09-01T03:30:16.844Z,15.70
2017-09-01T03:32:45.164Z,15.50
2017-09-01T03:35:13.419Z,15.60
2017-09-01T03:37:41.702Z,15.50
2017-09-01T03:40:09.969Z,15.50
2017-09-01T03:42:38.270Z,15.50
2017-09-01T03:48:06.354Z,15.30
2017-09-01T03:50:34.720Z,15.50
2017-09-01T03:53:02.988Z,15.50
2017-09-01T03:55:31.290Z,15.30
2017-09-01T03:57:59.800Z,15.30
2017-09-01T04:00:28.072Z,15.60
2017-09-01T04:02:56.543Z,15.60
2017-09-01T04:05:24.845Z,15.40
2017-09-01T04:07:53.125Z,15.40
2017-09-01T04:10:21.422Z,15.50
2017-09-01T04:12:49.683Z,15.40
2017-09-01T04:15:18.724Z,15.50
2017-09-01T04:17:46.987Z,15.80
2017-09-01T04:20:15.247Z,15.80
2017-09-01T04:22:43.527Z,15.70
2017-09-01T04:25:11.788Z,15.60
2017-09-01T04:27:40.120Z,15.60
2017-09-01T04:30:09.851Z,16.00
2017-09-01T04:32:38.396Z,15.70
2017-09-01T04:35:06.955Z,15.70
2017-09-01T04:37:35.212Z,15.80
2017-09-01T04:40:03.492Z,15.90
2017-09-01T04:42:31.815Z,15.80
2017-09-01T04:45:00.084Z,15.90
2017-09-01T04:47:28.352Z,15.90
2017-09-01T04:49:56.623Z,15.80
2017-09-01T04:52:25.047Z,15.90
2017-09-01T04:54:53.347Z,15.70
2017-09-01T04:57:21.591Z,15.80
2017-09-01T04:59:50.008Z,15.60
2017-09-01T05:02:18.441Z,15.90
2017-09-01T05:04:46.719Z,15.90
2017-09-01T05:07:14.975Z,15.90
2017-09-01T05:09:43.263Z,16.00
2017-09-01T05:12:11.533Z,15.90
2017-09-01T05:14:39.794Z,15.80
2017-09-01T05:17:08.042Z,15.70
2017-09-01T05:19:37.126Z,15.90
2017-09-01T05:22:06.078Z,15.90
2017-09-01T05:24:35.275Z,16.00
2017-09-01T05:27:03.571Z,15.80
2017-09-01T05:29:31.847Z,16.00
2017-09-01T05:32:00.109Z,15.80
2017-09-01T05:34:28.412Z,16.00
2017-09-01T05:36:56.680Z,16.10
2017-09-01T05:39:25.145Z,16.00
2017-09-01T05:41:53.403Z,16.20
2017-09-01T05:44:21.667Z,16.20
2017-09-01T05:46:49.934Z,16.30
2017-09-01T05:49:18.211Z,16.20
2017-09-01T05:51:46.485Z,15.90
2017-09-01T05:54:14.779Z,16.20
2017-09-01T05:56:43.026Z,16.10
2017-09-01T05:59:11.447Z,16.10
2017-09-01T06:01:39.712Z,16.30
2017-09-01T06:04:07.967Z,16.40
2017-09-01T06:06:36.240Z,16.30
2017-09-01T06:09:04.487Z,16.40
2017-09-01T06:11:32.760Z,16.30
2017-09-01T06:14:01.024Z,16.40
2017-09-01T06:16:29.367Z,16.60
2017-09-01T06:18:57.755Z,16.50
2017-09-01T06:21:26.004Z,16.20
2017-09-01T06:23:54.270Z,16.50
2017-09-01T06:26:22.589Z,16.60
2017-09-01T06:28:50.862Z,16.60
2017-09-01T06:31:19.241Z,16.70
2017-09-01T06:33:47.619Z,16.50
2017-09-01T06:36:16.100Z,16.90
2017-09-01T06:38:44.393Z,16.90
2017-09-01T06:41:12.635Z,16.70
2017-09-01T06:43:40.919Z,16.70
2017-09-01T06:46:09.329Z,17.00
2017-09-01T06:48:37.603Z,17.00
2017-09-01T06:51:10.358Z,17.00
2017-09-01T06:53:38.642Z,17.30
2017-09-01T06:56:06.932Z,17.10
2017-09-01T06:58:36.073Z,17.00
2017-09-01T07:01:04.353Z,17.20
2017-09-01T07:03:32.604Z,17.30
2017-09-01T07:06:01.061Z,17.30
2017-09-01T07:08:29.381Z,17.40
2017-09-01T07:10:57.623Z,17.40
2017-09-01T07:13:25.929Z,17.40
2017-09-01T07:15:54.215Z,17.40
2017-09-01T07:18:22.619Z,17.30
2017-09-01T07:20:50.855Z,17.20
2017-09-01T07:23:19.100Z,17.20
2017-09-01T07:25:47.392Z,17.30
2017-09-01T07:28:15.679Z,17.40
2017-09-01T07:30:43.967Z,17.30
2017-09-01T07:33:12.259Z,17.40
2017-09-01T07:35:40.583Z,17.50
2017-09-01T07:38:08.868Z,17.60
2017-09-01T07:40:37.123Z,17.70
2017-09-01T07:43:05.454Z,17.90
2017-09-01T07:45:33.734Z,17.60
2017-09-01T07:48:02.732Z,18.10
2017-09-01T07:50:31.022Z,18.20
2017-09-01T07:52:59.296Z,18.10
2017-09-01T07:55:27.581Z,18.20
2017-09-01T07:57:56.020Z,18.30
2017-09-01T08:00:24.358Z,18.60
2017-09-01T08:02:52.634Z,18.30
2017-09-01T08:05:20.962Z,18.40
2017-09-01T08:07:49.347Z,18.40
2017-09-01T08:10:17.691Z,18.50
2017-09-01T08:12:45.995Z,18.50
2017-09-01T08:15:14.273Z,18.30
2017-09-01T08:17:42.551Z,18.30
2017-09-01T08:20:10.864Z,18.40
2017-09-01T08:22:39.256Z,18.70
2017-09-01T08:25:07.504Z,18.80
2017-09-01T08:27:35.815Z,19.10
2017-09-01T08:30:04.084Z,19.10
2017-09-01T08:32:32.364Z,19.20
2017-09-01T08:35:00.656Z,19.20
2017-09-01T08:37:29.679Z,19.70
2017-09-01T08:39:58.150Z,19.70
2017-09-01T08:42:26.961Z,19.70
2017-09-01T08:45:04.861Z,19.40
2017-09-01T08:47:33.163Z,19.70
2017-09-01T08:50:01.643Z,19.40
2017-09-01T08:52:29.876Z,19.40
2017-09-01T08:54:58.153Z,19.30
2017-09-01T08:57:26.433Z,19.60
2017-09-01T08:59:54.767Z,19.30
2017-09-01T09:02:23.792Z,19.60
2017-09-01T09:04:52.052Z,19.60
2017-09-01T09:07:20.358Z,19.60
2017-09-01T09:09:48.646Z,19.20
2017-09-01T09:12:16.931Z,19.40
2017-09-01T09:14:45.235Z,19.30
2017-09-01T09:20:14.058Z,19.40
2017-09-01T09:22:42.330Z,19.30
2017-09-01T09:25:10.655Z,19.30
2017-09-01T09:27:38.948Z,19.40
2017-09-01T09:30:07.240Z,19.40
2017-09-01T09:32:35.504Z,19.40
2017-09-01T09:35:03.876Z,19.70
2017-09-01T09:37:32.240Z,19.80
2017-09-01T09:40:00.513Z,19.80
2017-09-01T09:42:28.866Z,19.80
2017-09-01T09:44:57.106Z,20.00
2017-09-01T09:47:25.398Z,20.20
2017-09-01T09:49:53.686Z,20.00
2017-09-01T09:52:22.160Z,20.00
2017-09-01T09:54:50.539Z,19.40
2017-09-01T09:57:18.814Z,19.90
2017-09-01T09:59:47.095Z,19.90
2017-09-01T10:02:15.455Z,19.90
2017-09-01T10:04:43.716Z,20.10
2017-09-01T10:07:12.031Z,19.80
2017-09-01T10:09:40.345Z,19.60
2017-09-01T10:12:08.575Z,19.60
2017-09-01T10:14:36.922Z,19.70
2017-09-01T10:17:05.262Z,19.70
2017-09-01T10:19:33.549Z,19.70
2017-09-01T10:22:02.007Z,19.70
2017-09-01T10:24:30.293Z,19.60
2017-09-01T10:26:58.566Z,19.50
2017-09-01T10:29:26.877Z,19.70
2017-09-01T10:31:55.198Z,19.60
2017-09-01T10:34:23.577Z,19.90
2017-09-01T10:36:51.980Z,19.50
2017-09-01T10:39:20.517Z,19.80
2017-09-01T10:41:49.995Z,19.90
2017-09-01T10:44:18.740Z,19.80
2017-09-01T10:46:47.733Z,19.80
2017-09-01T10:49:24.253Z,19.90
2017-09-01T10:52:05.093Z,20.10
2017-09-01T10:54:45.716Z,20.10
2017-09-01T10:57:26.102Z,20.40
2017-09-01T10:59:54.616Z,20.40
2017-09-01T11:02:23.342Z,20.50
2017-09-01T11:04:51.834Z,20.50
2017-09-01T11:07:20.668Z,20.50
2017-09-01T11:09:49.684Z,20.60
2017-09-01T11:12:18.147Z,20.70
2017-09-01T11:14:47.179Z,20.30
2017-09-01T11:17:15.699Z,20.80
2017-09-01T11:19:49.624Z,20.80
2017-09-01T11:22:23.692Z,20.80
2017-09-01T11:24:52.327Z,21.10
2017-09-01T11:27:20.817Z,21.10
2017-09-01T11:29:49.505Z,21.00
2017-09-01T11:32:17.977Z,20.80
2017-09-01T11:34:46.870Z,21.00
2017-09-01T11:37:15.346Z,21.00
2017-09-01T11:39:44.012Z,20.90
2017-09-01T11:42:12.490Z,20.80
2017-09-01T11:44:40.992Z,20.80
2017-09-01T11:47:09.424Z,20.40
2017-09-01T11:49:38.253Z,20.20
2017-09-01T11:52:07.458Z,19.90
2017-09-01T11:54:36.290Z,20.00
2017-09-01T11:57:05.025Z,19.90
2017-09-01T11:59:33.521Z,20.00
2017-09-01T12:02:02.192Z,19.90
2017-09-01T12:04:30.903Z,19.80
2017-09-01T12:06:59.402Z,19.80
2017-09-01T12:09:27.746Z,19.50
2017-09-01T12:11:56.222Z,19.60
2017-09-01T12:14:25.090Z,19.60
2017-09-01T12:16:53.513Z,19.70
2017-09-01T12:19:22.176Z,19.60
2017-09-01T12:21:50.562Z,19.70
2017-09-01T12:24:19.014Z,19.40
2017-09-01T12:26:47.873Z,19.30
2017-09-01T12:29:16.240Z,19.10
2017-09-01T12:31:45.108Z,19.20
2017-09-01T12:34:13.677Z,19.20
2017-09-01T12:36:42.163Z,19.00
2017-09-01T12:39:10.652Z,18.90
2017-09-01T12:41:39.294Z,19.00
2017-09-01T12:44:07.636Z,18.90
2017-09-01T12:46:36.178Z,18.60
2017-09-01T12:49:04.677Z,18.70
2017-09-01T12:51:33.817Z,18.80
2017-09-01T12:54:02.280Z,18.60
2017-09-01T12:56:30.894Z,18.60
2017-09-01T12:58:59.561Z,18.70
2017-09-01T13:01:28.385Z,18.70
2017-09-01T13:03:56.950Z,18.30
2017-09-01T13:06:25.530Z,18.20
2017-09-01T13:08:54.132Z,18.40
2017-09-01T13:11:24.264Z,18.50
2017-09-01T13:13:52.635Z,18.70
2017-09-01T13:16:21.006Z,19.00
2017-09-01T13:18:51.717Z,18.90
2017-09-01T13:21:20.079Z,18.70
2017-09-01T13:23:49.392Z,18.60
2017-09-01T13:26:17.783Z,18.60
2017-09-01T13:28:46.532Z,18.40
2017-09-01T13:31:15.106Z,18.40
2017-09-01T13:33:43.738Z,18.30
2017-09-01T13:36:12.352Z,18.40
2017-09-01T13:38:41.604Z,18.50
2017-09-01T13:41:09.884Z,18.60
2017-09-01T13:43:38.179Z,18.30
2017-09-01T13:46:06.616Z,18.30
2017-09-01T13:48:35.688Z,18.50
2017-09-01T13:51:03.992Z,18.40
2017-09-01T13:53:32.353Z,18.70
2017-09-01T13:56:00.640Z,18.60
2017-09-01T13:58:29.684Z,18.50
2017-09-01T14:00:57.991Z,18.80
2017-09-01T14:03:26.416Z,18.80
2017-09-01T14:05:54.760Z,18.50
2017-09-01T14:08:23.027Z,18.80
2017-09-01T14:10:51.317Z,18.90
2017-09-01T14:13:19.682Z,18.70
2017-09-01T14:15:47.981Z,18.70
2017-09-01T14:18:17.085Z,18.80
2017-09-01T14:20:45.363Z,18.80
2017-09-01T14:23:13.800Z,18.80
2017-09-01T14:25:42.136Z,19.00
2017-09-01T14:28:10.394Z,18.80
2017-09-01T14:30:38.696Z,19.30
2017-09-01T14:33:07.008Z,19.00
2017-09-01T14:35:35.282Z,19.30
2017-09-01T14:38:03.603Z,19.20
2017-09-01T14:40:31.876Z,19.30
2017-09-01T14:43:00.184Z,19.30
2017-09-01T14:45:28.550Z,19.30
2017-09-01T14:47:56.854Z,19.40
2017-09-01T14:50:25.134Z,19.50
2017-09-01T14:52:53.427Z,19.30
2017-09-01T14:55:21.793Z,19.30
2017-09-01T14:57:50.095Z,19.20
2017-09-01T15:00:18.444Z,18.90
2017-09-01T15:02:46.766Z,19.20
2017-09-01T15:05:15.053Z,19.30
2017-09-01T15:07:43.463Z,19.10
2017-09-01T15:10:11.715Z,19.00
2017-09-01T15:12:40.266Z,18.80
2017-09-01T15:15:09.328Z,18.80
2017-09-01T15:17:37.647Z,19.10
2017-09-01T15:20:07.007Z,18.90
2017-09-01T15:22:39.706Z,19.10
2017-09-01T15:25:08.661Z,19.50
2017-09-01T15:27:37.090Z,19.30
2017-09-01T15:30:05.359Z,19.30
2017-09-01T15:32:33.901Z,19.10
2017-09-01T15:35:02.395Z,19.20
2017-09-01T15:37:31.798Z,19.20
2017-09-01T15:40:01.624Z,19.50
2017-09-01T15:42:29.968Z,19.20
2017-09-01T15:44:58.300Z,19.20
2017-09-01T15:47:27.394Z,19.60
2017-09-01T15:49:55.807Z,19.50
2017-09-01T15:52:24.381Z,19.50
2017-09-01T15:54:52.694Z,19.40
2017-09-01T15:57:21.014Z,19.50
2017-09-01T15:59:49.334Z,19.70
2017-09-01T16:02:17.743Z,20.20
2017-09-01T16:04:46.036Z,20.10
2017-09-01T16:07:14.644Z,20.10
2017-09-01T16:09:42.968Z,20.10
2017-09-01T16:12:11.293Z,20.00
2017-09-01T16:14:47.624Z,20.50
2017-09-01T16:17:15.915Z,20.30
2017-09-01T16:19:44.245Z,20.60
2017-09-01T16:22:12.562Z,20.40
2017-09-01T16:24:40.899Z,20.10
2017-09-01T16:27:09.189Z,20.10
2017-09-01T16:29:37.494Z,20.10
2017-09-01T16:32:05.899Z,20.50
2017-09-01T16:34:34.206Z,20.30
2017-09-01T16:37:02.514Z,20.10
2017-09-01T16:39:30.848Z,19.80
2017-09-01T16:41:59.188Z,20.00
2017-09-01T16:44:27.541Z,19.80
2017-09-01T16:46:55.860Z,19.70
2017-09-01T16:49:24.291Z,19.60
2017-09-01T16:51:52.734Z,19.50
2017-09-01T16:54:21.022Z,19.60
2017-09-01T16:56:49.319Z,19.80
2017-09-01T16:59:17.676Z,19.60
2017-09-01T17:01:46.693Z,19.60
2017-09-01T17:04:15.134Z,19.80
2017-09-01T17:06:44.441Z,19.70
2017-09-01T17:09:12.783Z,19.80
2017-09-01T17:11:41.287Z,19.60
2017-09-01T17:14:09.646Z,19.70
2017-09-01T17:16:38.001Z,19.60
2017-09-01T17:19:06.266Z,19.60
2017-09-01T17:21:34.644Z,19.60
2017-09-01T17:24:03.020Z,19.60
2017-09-01T17:26:33.275Z,19.60
2017-09-01T17:29:01.954Z,19.50
2017-09-01T17:31:30.332Z,19.40
2017-09-01T17:33:58.645Z,19.10
2017-09-01T17:36:26.962Z,18.80
2017-09-01T17:38:55.275Z,18.70
2017-09-01T17:41:23.646Z,18.80
2017-09-01T17:43:51.970Z,18.80
2017-09-01T17:46:20.635Z,18.50
2017-09-01T17:48:49.804Z,18.60
2017-09-01T17:51:18.102Z,18.50
2017-09-01T17:53:46.444Z,18.60
2017-09-01T17:56:14.908Z,18.90
2017-09-01T17:58:43.203Z,18.80
2017-09-01T18:01:11.597Z,19.20
2017-09-01T18:03:40.015Z,19.10
2017-09-01T18:06:08.310Z,19.10
2017-09-01T18:08:37.352Z,19.30
2017-09-01T18:11:06.416Z,19.10
2017-09-01T18:13:34.828Z,19.10
2017-09-01T18:16:03.140Z,19.10
2017-09-01T18:18:31.449Z,19.10
2017-09-01T18:20:59.727Z,19.20
2017-09-01T18:23:28.015Z,19.20
2017-09-01T18:25:56.415Z,19.30
2017-09-01T18:28:24.826Z,19.30
2017-09-01T18:30:53.201Z,19.40
2017-09-01T18:33:21.473Z,19.60
2017-09-01T18:35:49.757Z,19.50
2017-09-01T18:38:18.123Z,19.40
2017-09-01T18:40:46.490Z,19.60
2017-09-01T18:43:14.789Z,19.40
2017-09-01T18:45:43.067Z,19.30
2017-09-01T18:48:11.380Z,19.20
2017-09-01T18:50:39.660Z,19.50
2017-09-01T18:53:07.996Z,19.10
2017-09-01T18:55:36.338Z,19.30
2017-09-01T18:58:04.664Z,19.10
2017-09-01T19:00:33.029Z,19.20
2017-09-01T19:03:01.699Z,18.80
2017-09-01T19:05:30.009Z,18.70
2017-09-01T19:07:58.454Z,18.50
2017-09-01T19:10:27.773Z,18.50
2017-09-01T19:12:56.196Z,18.50
2017-09-01T19:15:24.527Z,18.50
2017-09-01T19:17:53.019Z,18.20
2017-09-01T19:20:21.343Z,18.20
2017-09-01T19:22:49.654Z,18.30
2017-09-01T19:25:17.956Z,18.10
2017-09-01T19:27:46.334Z,18.20
2017-09-01T19:30:14.668Z,18.40
2017-09-01T19:32:43.026Z,18.20
2017-09-01T19:35:11.353Z,18.20
2017-09-01T19:37:39.910Z,18.30
2017-09-01T19:40:08.829Z,18.10
2017-09-01T19:42:38.557Z,18.40
2017-09-01T19:45:08.171Z,18.00
2017-09-01T19:47:36.873Z,18.30
2017-09-01T19:50:05.356Z,18.20
2017-09-01T19:52:33.865Z,18.20
2017-09-01T19:55:02.577Z,18.10
2017-09-01T19:57:31.099Z,18.20
2017-09-01T19:59:59.779Z,18.10
2017-09-01T20:02:28.600Z,18.30
2017-09-01T20:04:57.574Z,18.20
2017-09-01T20:07:26.208Z,18.20
2017-09-01T20:09:54.763Z,18.10
2017-09-01T20:12:23.205Z,17.80
2017-09-01T20:14:51.747Z,17.90
2017-09-01T20:17:20.210Z,18.00
2017-09-01T20:19:48.822Z,18.20
2017-09-01T20:22:17.301Z,18.20
2017-09-01T20:24:45.971Z,18.20
2017-09-01T20:27:14.341Z,18.10
2017-09-01T20:29:42.841Z,18.20
2017-09-01T20:32:11.152Z,17.90
2017-09-01T20:34:40.238Z,18.30
2017-09-01T20:37:08.635Z,17.90
2017-09-01T20:39:37.041Z,18.20
2017-09-01T20:42:05.369Z,17.70
2017-09-01T20:44:33.851Z,17.70
2017-09-01T20:47:02.150Z,17.80
2017-09-01T20:49:30.434Z,17.80
2017-09-01T20:51:58.803Z,17.80
2017-09-01T20:54:27.151Z,17.70
2017-09-01T20:56:55.449Z,17.90
2017-09-01T20:59:23.825Z,17.90
2017-09-01T21:01:52.272Z,17.90
2017-09-01T21:04:20.702Z,18.00
2017-09-01T21:06:52.871Z,17.90
2017-09-01T21:09:21.228Z,18.00
2017-09-01T21:14:24.220Z,18.10
2017-09-01T21:16:52.566Z,17.80
2017-09-01T21:19:20.926Z,18.00
2017-09-01T21:21:49.309Z,17.90
2017-09-01T21:24:17.621Z,17.70
2017-09-01T21:26:45.953Z,17.90
2017-09-01T21:29:14.359Z,17.50
2017-09-01T21:31:46.003Z,17.80
2017-09-01T21:34:14.422Z,17.80
2017-09-01T21:36:42.880Z,17.90
2017-09-01T21:39:11.216Z,17.70
2017-09-01T21:41:39.526Z,17.80
2017-09-01T21:44:07.944Z,17.80
2017-09-01T21:46:36.305Z,17.60
2017-09-01T21:49:04.839Z,17.80
2017-09-01T21:51:34.472Z,17.80
2017-09-01T21:54:02.922Z,17.70
2017-09-01T21:56:31.299Z,17.70
2017-09-01T21:58:59.781Z,17.50
2017-09-01T22:01:33.048Z,17.70
2017-09-01T22:04:01.444Z,17.90
2017-09-01T22:06:29.848Z,17.80
2017-09-01T22:08:58.199Z,17.80
2017-09-01T22:11:26.554Z,17.60
2017-09-01T22:16:56.227Z,17.80
2017-09-01T22:19:25.826Z,17.60
2017-09-01T22:21:54.120Z,17.90
2017-09-01T22:24:23.178Z,17.60
2017-09-01T22:26:51.788Z,17.50
2017-09-01T22:29:20.182Z,17.90
2017-09-01T22:31:48.529Z,17.50
2017-09-01T22:34:17.609Z,17.80
2017-09-01T22:36:46.135Z,17.50
2017-09-01T22:39:14.698Z,17.90
2017-09-01T22:41:43.086Z,17.60
2017-09-01T22:44:11.416Z,17.70
2017-09-01T22:46:39.686Z,17.80
2017-09-01T22:49:08.039Z,17.80
2017-09-01T22:51:36.305Z,17.90
2017-09-01T22:54:04.575Z,18.20
2017-09-01T22:56:32.889Z,18.10
2017-09-01T22:59:01.280Z,18.00
2017-09-01T23:01:29.608Z,18.00
2017-09-01T23:03:57.971Z,17.80
2017-09-01T23:06:26.288Z,17.60
2017-09-01T23:08:54.629Z,17.80
2017-09-01T23:11:22.862Z,17.40
2017-09-01T23:13:51.142Z,17.50
2017-09-01T23:16:19.414Z,17.60
2017-09-01T23:18:47.898Z,17.60
2017-09-01T23:21:16.229Z,17.50
2017-09-01T23:23:44.509Z,17.70
2017-09-01T23:26:12.812Z,17.80
2017-09-01T23:28:41.096Z,17.60
2017-09-01T23:31:09.364Z,17.80
2017-09-01T23:33:37.616Z,17.70
2017-09-01T23:36:05.920Z,17.80
2017-09-01T23:38:34.192Z,18.10
2017-09-01T23:41:02.507Z,17.90
2017-09-01T23:43:30.811Z,17.80
2017-09-01T23:45:59.166Z,17.90
2017-09-01T23:48:27.642Z,17.90
2017-09-01T23:50:56.085Z,17.90
2017-09-01T23:53:26.274Z,17.50
2017-09-01T23:55:55.874Z,17.70
2017-09-01T23:58:24.108Z,17.80
